Terminal Aerodrome Forecast
Issued by NWS Sioux Falls, SD

Home | Current Version | Previous Version | Text Only | Print | Product List | Glossary On
Versions: 1 2 3 4 5 6 7 8 9 10 11 12 13 14 15 16 17
000
FTUS43 KFSD 232340
TAFHON
TAF
KHON 232340Z 2400/2424 34018G27KT P6SM OVC014
     FM240200 32014KT P6SM OVC014
     FM241300 30008KT P6SM OVC009
     FM241700 24007KT P6SM BKN012
     FM241900 20007KT P6SM SCT012 BKN200=

USA.gov is the U.S. government's official web portal to all federal, state and local government web resources and services.